Elton, WI

11:50 PM CDT on July 09, 2014 (GMT -0500)
Wausau Downtown (KAUW) Elev 1201 ft | 44.93 °N, 89.63 °W | Change Station

Current weather conditions updated 56 minutes ago

Clear
Clear
57 °F
Feels Like 57 °F
N
0
Wind Variable Wind from North

Tomorrow is forecast to be Warmer than today.

Today
High -- | Low -- °F
--% Chance of Precip.
Yesterday
High -- | Low -- °F
Precip. -- in
5:17 AM 8:43 PM
Waxing Gibbous, 93% visible
Pressure 30.07 in
Visibility 10.0 miles
Clouds Clear
Dew Point 52 °F
Humidity 83%
Rainfall 0.00 in
Snow Depth Not available.
UV 0 out of 12
Pollen 3.60 out of 12
Air Quality Not available.
Flu Activity Sporadic
METAR KAUW 100354Z AUTO 00000KT 10SM CLR 14/11 A3006 RMK AO2 SLP181 T01390111

More Conditions Fewer Conditions

Pressure 30.07 in
Visibility 10.0 miles
Clouds Clear
Dew Point 52 °F
Humidity 83%
Rainfall 0.00 in
Snow Depth Not available.
UV 0 out of 12
Pollen 3.60 out of 12
Air Quality Not available.
Flu Activity Sporadic
METAR KAUW 100354Z AUTO 00000KT 10SM CLR 14/11 A3006 RMK AO2 SLP181 T01390111

More Conditions Fewer Conditions

10-Day Weather Forecast

Almanac

Astronomy

Jul. 09, 2014 Rise Set
Actual Time 5:17 AM CDT 8:43 PM CDT
Civil Twilight 4:40 AM CDT 9:20 PM CDT
Nautical Twilight 3:52 AM CDT 10:08 PM CDT
Astronomical Twilight 2:50 AM CDT 11:09 PM CDT
Moon 5:51 PM CDT (7/9) 2:39 AM CDT (7/9)
Length of Visible Light 16h 39m
Length of Day
15h 26m
Tomorrow will be 1m 20s shorter.
Waxing Gibbous, 93% of the Moon is Illuminated
Jul 10
Waxing Gibbous
Jul 12
Full
Jul 18
Last Quarter
Jul 26
New
Aug 3
First Quarter

Yesterday's Extremes

State Highs State Lows

Community

WunderPhotos

Upload Photos

1,732,072 photos uploaded!

Nearby

Snow Depth

Station Depth Elevation
No new snow has been reported.

Earthquake Activity

City Distance Mag. Time & Date
No recent earthquake activity has been reported nearby.
Minimum magnitude displayed is 2.5.

Coastal Water Temperatures

Place Temperature
No Stations Reporting

Nearby Weather Stations

Station Location Temp. Windchill Dew Point Humidity Wind Precip. Elev Updated Type
RAWS ANTIGO WI, Antigo, WI 51 °F - 51 °F 100% North  at  0 mph 0.00 in / hr 1499 ft 11:05 PM CDT MADIS
WIDOT Townsend - STH 32 1 mi N of CTH T, Townsend, WI - - - 92% West  at  1 mph 0.00 in / hr 1355 ft 10:32 PM CDT MADIS
RAWS KESHENA WI, Keshena, WI 51 °F - 51 °F 100% North  at  0 mph 0.00 in / hr 871 ft 11:05 PM CDT MADIS
Mountain, Mountain, WI 48.9 °F 49 °F 48 °F 95% North  at  0.0 mph 0.00 in / hr 925 ft 11:50 PM CDT Rapid Fire
Lakewood, WI 51.7 °F - 48 °F 88% NNE  at  0.0 mph 0.00 in / hr 1219 ft 11:30 PM CDT Normal
RAWS LAONA WI, Wabeno, WI 44 °F 44 °F 43 °F 97% North  at  0 mph 0.00 in / hr 1560 ft 11:01 PM CDT MADIS
Pine Ridge Lake, Lakewood, WI 52.0 °F - 50 °F 94% North  at  0.0 mph 0.00 in / hr 1266 ft 11:02 PM CDT Normal

Show More Stations Show Fewer Stations